Chippenham, United Kingdom
Current Conditions -  °F | °C
As of 10:59 PM on Sunday 21 Dec 2014 (Local Time) from EGVA Reporting Station
Overcast Overcast  
Wind Chill: 52°   Ceiling: 600
Heat Index: 52°   Visibility: 6mi
Dew Point: 52°   Wind: 20mph
Humidity: 100%   Direction: 240°WSW
Pressure: 30.12"   Gusts: 24mph
Location:  51.46°N, 2.12°W
Report Text: EGVA 212259Z AUTO 24017G21KT 9999 OVC006 11/11 A3012 RMK AO2 DZB2244
Loading
Personal Weather Stations






























Interactive Weather Map New forecast layout! Learn more

10-Day Weather Forecast

Advertisements
Track Severe Weather on mobile